Time,TemperatureF,DewpointF,PressureIn,WindDirection,WindDirectionDegrees,WindSpeedMPH,WindSpeedGustMPH,Humidity,HourlyPrecipIn,Conditions,Clouds,dailyrainin,SoftwareType,DateUTC
2013-01-06 13:22:00,51.0,-99.9,30.17,NNW,333,12.0,15.0,-999,-99.99,,,-99.99,,2013-01-06 21:22:00,
2013-01-06 13:33:00,51.0,-99.9,30.17,NNW,327,12.0,15.0,-999,-99.99,,,-99.99,,2013-01-06 21:33:00,
2013-01-06 13:43:00,52.0,-99.9,30.16,NW,325,10.0,15.0,-999,-99.99,,,-99.99,,2013-01-06 21:43:00,
2013-01-06 13:53:00,52.0,-99.9,30.16,NW,324,11.0,15.0,-999,-99.99,,,-99.99,,2013-01-06 21:53:00,
2013-01-06 14:02:00,52.0,-99.9,30.16,NNW,338,11.0,13.0,-999,-99.99,,,-99.99,,2013-01-06 22:02:00,
2013-01-06 14:12:00,52.0,-99.9,30.16,NNW,333,11.0,14.0,-999,-99.99,,,-99.99,,2013-01-06 22:12:00,
2013-01-06 14:23:00,52.0,-99.9,30.16,NNW,333,11.0,12.0,-999,-99.99,,,-99.99,,2013-01-06 22:23:00,
2013-01-06 14:33:00,52.0,-99.9,30.16,NNW,330,10.0,15.0,-999,-99.99,,,-99.99,,2013-01-06 22:33:00,
2013-01-06 14:43:00,53.0,-99.9,30.17,NW,315,11.0,13.0,-999,-99.99,,,-99.99,,2013-01-06 22:43:00,
2013-01-06 14:53:00,52.0,-99.9,30.17,NW,315,13.0,15.0,-999,-99.99,,,-99.99,,2013-01-06 22:53:00,
2013-01-06 15:02:00,53.0,-99.9,30.17,NW,312,13.0,15.0,-999,-99.99,,,-99.99,,2013-01-06 23:02:00,
2013-01-06 15:13:00,52.0,-99.9,30.17,NW,305,15.0,19.0,-999,-99.99,,,-99.99,,2013-01-06 23:13:00,
2013-01-06 15:22:00,52.0,-99.9,30.17,WNW,296,15.0,19.0,-999,-99.99,,,-99.99,,2013-01-06 23:22:00,
2013-01-06 15:33:00,53.0,-99.9,30.17,NW,312,13.0,16.0,-999,-99.99,,,-99.99,,2013-01-06 23:33:00,
2013-01-06 15:43:00,53.0,-99.9,30.17,NW,311,15.0,17.0,-999,-99.99,,,-99.99,,2013-01-06 23:43:00,
2013-01-06 15:53:00,53.0,-99.9,30.17,NW,321,12.0,17.0,-999,-99.99,,,-99.99,,2013-01-06 23:53:00,
2013-01-06 16:03:00,53.0,-99.9,30.17,NW,319,13.0,17.0,-999,-99.99,,,-99.99,,2013-01-07 00:03:00,
2013-01-06 16:12:00,53.0,-99.9,30.17,NW,313,15.0,18.0,-999,-99.99,,,-99.99,,2013-01-07 00:12:00,
2013-01-06 16:23:00,53.0,-99.9,30.18,NW,315,15.0,20.0,-999,-99.99,,,-99.99,,2013-01-07 00:23:00,
2013-01-06 16:33:00,52.0,-99.9,30.18,NW,309,17.0,20.0,-999,-99.99,,,-99.99,,2013-01-07 00:33:00,
2013-01-06 16:43:00,52.0,-99.9,30.18,NW,311,17.0,21.0,-999,-99.99,,,-99.99,,2013-01-07 00:43:00,
2013-01-06 16:53:00,52.0,-99.9,30.18,NW,304,16.0,19.0,-999,-99.99,,,-99.99,,2013-01-07 00:53:00,
2013-01-06 17:03:00,52.0,-99.9,30.18,NW,305,20.0,23.0,-999,-99.99,,,-99.99,,2013-01-07 01:03:00,
2013-01-06 17:12:00,52.0,-99.9,30.18,NW,308,18.0,23.0,-999,-99.99,,,-99.99,,2013-01-07 01:12:00,
2013-01-06 17:23:00,52.0,-99.9,30.17,WNW,303,19.0,24.0,-999,-99.99,,,-99.99,,2013-01-07 01:23:00,
2013-01-06 17:32:00,52.0,-99.9,30.17,WNW,300,16.0,20.0,-999,-99.99,,,-99.99,,2013-01-07 01:32:00,
2013-01-06 17:43:00,52.0,-99.9,30.17,NW,311,15.0,20.0,-999,-99.99,,,-99.99,,2013-01-07 01:43:00,
2013-01-06 17:53:00,52.0,-99.9,30.16,WNW,295,15.0,19.0,-999,-99.99,,,-99.99,,2013-01-07 01:53:00,
2013-01-06 18:02:00,52.0,-99.9,30.16,WNW,300,15.0,22.0,-999,-99.99,,,-99.99,,2013-01-07 02:02:00,
2013-01-06 18:12:00,52.0,-99.9,30.17,WNW,297,16.0,19.0,-999,-99.99,,,-99.99,,2013-01-07 02:12:00,
2013-01-06 18:23:00,52.0,-99.9,30.17,WNW,295,17.0,20.0,-999,-99.99,,,-99.99,,2013-01-07 02:23:00,
2013-01-06 18:33:00,52.0,-99.9,30.17,WNW,297,16.0,21.0,-999,-99.99,,,-99.99,,2013-01-07 02:33:00,
2013-01-06 18:43:00,52.0,-99.9,30.17,NW,307,18.0,21.0,-999,-99.99,,,-99.99,,2013-01-07 02:43:00,
2013-01-06 18:53:00,52.0,-99.9,30.18,NW,306,16.0,20.0,-999,-99.99,,,-99.99,,2013-01-07 02:53:00,
2013-01-06 19:03:00,52.0,-99.9,30.18,WNW,296,16.0,22.0,-999,-99.99,,,-99.99,,2013-01-07 03:03:00,
2013-01-06 19:12:00,52.0,-99.9,30.18,WNW,294,14.0,21.0,-999,-99.99,,,-99.99,,2013-01-07 03:12:00,
2013-01-06 19:23:00,52.0,-99.9,30.18,WNW,298,15.0,22.0,-999,-99.99,,,-99.99,,2013-01-07 03:23:00,
2013-01-06 19:33:00,52.0,-99.9,30.18,WNW,297,17.0,24.0,-999,-99.99,,,-99.99,,2013-01-07 03:33:00,
2013-01-06 19:43:00,52.0,-99.9,30.19,WNW,297,20.0,26.0,-999,-99.99,,,-99.99,,2013-01-07 03:43:00,
2013-01-06 19:53:00,52.0,-99.9,30.19,WNW,297,19.0,24.0,-999,-99.99,,,-99.99,,2013-01-07 03:53:00,
2013-01-06 20:02:00,52.0,-99.9,30.18,WNW,293,17.0,22.0,-999,-99.99,,,-99.99,,2013-01-07 04:02:00,
2013-01-06 20:13:00,52.0,-99.9,30.19,WNW,300,19.0,23.0,-999,-99.99,,,-99.99,,2013-01-07 04:13:00,
2013-01-06 20:22:00,52.0,-99.9,30.19,WNW,302,16.0,22.0,-999,-99.99,,,-99.99,,2013-01-07 04:22:00,
2013-01-06 20:33:00,52.0,-99.9,30.18,NW,307,21.0,24.0,-999,-99.99,,,-99.99,,2013-01-07 04:33:00,
2013-01-06 20:42:00,52.0,-99.9,30.19,NW,308,18.0,23.0,-999,-99.99,,,-99.99,,2013-01-07 04:42:00,
2013-01-06 20:53:00,52.0,-99.9,30.19,NW,309,16.0,21.0,-999,-99.99,,,-99.99,,2013-01-07 04:53:00,
2013-01-06 21:03:00,52.0,-99.9,30.19,NW,315,16.0,20.0,-999,-99.99,,,-99.99,,2013-01-07 05:03:00,
2013-01-06 21:12:00,52.0,-99.9,30.20,NW,307,16.0,22.0,-999,-99.99,,,-99.99,,2013-01-07 05:12:00,
2013-01-06 21:22:00,52.0,-99.9,30.20,NW,307,18.0,23.0,-999,-99.99,,,-99.99,,2013-01-07 05:22:00,
2013-01-06 21:33:00,52.0,-99.9,30.20,WNW,303,22.0,27.0,-999,-99.99,,,-99.99,,2013-01-07 05:33:00,
2013-01-06 21:43:00,52.0,-99.9,30.20,NW,311,23.0,27.0,-999,-99.99,,,-99.99,,2013-01-07 05:43:00,
2013-01-06 21:53:00,51.0,-99.9,30.20,NW,308,19.0,24.0,-999,-99.99,,,-99.99,,2013-01-07 05:53:00,
2013-01-06 22:02:00,51.0,-99.9,30.20,NW,312,17.0,22.0,-999,-99.99,,,-99.99,,2013-01-07 06:02:00,
2013-01-06 22:12:00,51.0,-99.9,30.19,NW,308,19.0,24.0,-999,-99.99,,,-99.99,,2013-01-07 06:12:00,
2013-01-06 22:22:00,51.0,-99.9,30.19,NW,305,21.0,24.0,-999,-99.99,,,-99.99,,2013-01-07 06:22:00,
2013-01-06 22:32:00,51.0,-99.9,30.19,NW,308,16.0,20.0,-999,-99.99,,,-99.99,,2013-01-07 06:32:00,
2013-01-06 22:42:00,51.0,-99.9,30.19,NW,312,16.0,19.0,-999,-99.99,,,-99.99,,2013-01-07 06:42:00,
2013-01-06 22:52:00,51.0,-99.9,30.19,NW,310,18.0,22.0,-999,-99.99,,,-99.99,,2013-01-07 06:52:00,
2013-01-06 23:02:00,51.0,-99.9,30.19,NW,315,15.0,20.0,-999,-99.99,,,-99.99,,2013-01-07 07:02:00,
2013-01-06 23:12:00,51.0,-99.9,30.19,NW,314,17.0,23.0,-999,-99.99,,,-99.99,,2013-01-07 07:12:00,
2013-01-06 23:23:00,51.0,-99.9,30.20,NW,313,18.0,23.0,-999,-99.99,,,-99.99,,2013-01-07 07:23:00,
2013-01-06 23:33:00,51.0,-99.9,30.20,NW,308,19.0,23.0,-999,-99.99,,,-99.99,,2013-01-07 07:33:00,
2013-01-06 23:43:00,51.0,-99.9,30.19,NW,306,20.0,24.0,-999,-99.99,,,-99.99,,2013-01-07 07:43:00,
2013-01-06 23:53:00,51.0,-99.9,30.19,WNW,303,21.0,25.0,-999,-99.99,,,-99.99,,2013-01-07 07:53:00,